Terminal Aerodrome Forecast
Issued by NWS

Home | Current Version | Previous Version | Graphics & Text | Print | Product List | Glossary On
Versions: 1 2 3 4 5 6 7 8 9 10 11 12 13 14 15 16 17 18 19
000
FTUS43 KMPX 262335
TAFAXN
TAF
KAXN 262335Z 2700/2724 VRB03KT P6SM BKN045
     FM270400 14004KT P6SM VCSH OVC040
      TEMPO 2704/2707 2SM -SN OVC030
     FM270900 15004KT P6SM SCT040 OVC100
     FM271800 17009KT P6SM BKN080=

USA.gov is the U.S. government's official web portal to all federal, state and local government web resources and services.